createdAt,value
2022-08-24T00:01:41.333Z,1.87
2022-08-24T00:04:32.185Z,2.13
2022-08-24T00:07:27.332Z,1.70
2022-08-24T00:10:17.312Z,2.07
2022-08-24T00:13:05.781Z,1.90
2022-08-24T00:15:54.239Z,2.00
2022-08-24T00:18:42.763Z,1.80
2022-08-24T00:21:31.266Z,1.90
2022-08-24T00:24:21.148Z,2.07
2022-08-24T00:27:11.416Z,2.10
2022-08-24T00:29:59.874Z,2.00
2022-08-24T00:32:49.009Z,2.20
2022-08-24T00:35:37.832Z,2.20
2022-08-24T00:38:27.764Z,1.80
2022-08-24T00:41:19.693Z,2.00
2022-08-24T00:44:08.377Z,2.23
2022-08-24T00:47:00.677Z,1.90
2022-08-24T00:49:55.484Z,2.03
2022-08-24T00:52:47.719Z,1.80
2022-08-24T00:55:38.957Z,2.00
2022-08-24T00:58:32.950Z,2.00
2022-08-24T01:01:21.534Z,2.10
2022-08-24T01:04:10.753Z,2.07
2022-08-24T01:06:59.590Z,1.90
2022-08-24T01:09:47.979Z,2.00
2022-08-24T01:12:37.871Z,1.73
2022-08-24T01:15:27.662Z,2.47
2022-08-24T01:18:36.967Z,1.93
2022-08-24T01:21:28.774Z,1.87
2022-08-24T01:24:18.649Z,2.37
2022-08-24T01:27:09.312Z,2.10
2022-08-24T01:29:58.428Z,2.00
2022-08-24T01:32:54.198Z,2.40
2022-08-24T01:35:42.825Z,2.33
2022-08-24T01:38:31.319Z,2.20
2022-08-24T01:41:21.191Z,1.83
2022-08-24T01:44:09.751Z,2.17
2022-08-24T01:46:58.756Z,2.27
2022-08-24T01:49:49.396Z,1.90
2022-08-24T01:53:03.926Z,2.10
2022-08-24T01:55:51.672Z,2.40
2022-08-24T01:58:46.574Z,2.03
2022-08-24T02:01:38.132Z,2.13
2022-08-24T02:04:26.939Z,2.30
2022-08-24T02:07:17.033Z,2.03
2022-08-24T02:10:07.029Z,2.30
2022-08-24T02:12:58.680Z,1.93
2022-08-24T02:15:49.213Z,1.87
2022-08-24T02:18:40.548Z,2.00
2022-08-24T02:21:29.204Z,2.13
2022-08-24T02:24:17.835Z,1.97
2022-08-24T02:27:06.911Z,2.10
2022-08-24T02:29:56.063Z,2.20
2022-08-24T02:32:45.842Z,2.10
2022-08-24T02:35:34.304Z,2.03
2022-08-24T02:38:23.409Z,2.03
2022-08-24T02:41:12.126Z,2.10
2022-08-24T02:44:02.468Z,2.10
2022-08-24T02:46:50.875Z,2.00
2022-08-24T02:49:41.840Z,2.07
2022-08-24T02:52:30.780Z,2.00
2022-08-24T02:55:20.613Z,2.20
2022-08-24T02:58:12.993Z,2.23
2022-08-24T03:01:01.831Z,2.00
2022-08-24T03:03:50.606Z,1.83
2022-08-24T03:06:40.512Z,2.10
2022-08-24T03:09:29.072Z,1.90
2022-08-24T03:12:19.239Z,2.03
2022-08-24T03:15:09.830Z,1.90
2022-08-24T03:17:58.289Z,1.90
2022-08-24T03:20:49.007Z,2.00
2022-08-24T03:23:39.283Z,1.80
2022-08-24T03:26:27.798Z,1.80
2022-08-24T03:29:16.436Z,2.00
2022-08-24T03:32:05.760Z,2.23
2022-08-24T03:34:54.440Z,1.80
2022-08-24T03:37:42.901Z,1.80
2022-08-24T03:40:33.865Z,1.97
2022-08-24T03:43:40.099Z,2.10
2022-08-24T03:46:29.812Z,2.00
2022-08-24T03:49:18.313Z,2.30
2022-08-24T03:52:07.249Z,2.20
2022-08-24T03:54:56.218Z,1.90
2022-08-24T03:57:47.094Z,2.17
2022-08-24T04:00:37.763Z,2.50
2022-08-24T04:03:26.362Z,2.27
2022-08-24T04:06:18.144Z,2.10
2022-08-24T04:09:07.626Z,2.27
2022-08-24T04:11:59.236Z,1.90
2022-08-24T04:14:51.846Z,1.70
2022-08-24T04:17:40.284Z,1.93
2022-08-24T04:20:28.841Z,2.20
2022-08-24T04:23:18.939Z,1.80
2022-08-24T04:26:07.795Z,2.00
2022-08-24T04:28:56.513Z,1.97
2022-08-24T04:31:46.910Z,1.80
2022-08-24T04:34:35.959Z,1.90
2022-08-24T04:37:28.456Z,2.10
2022-08-24T04:40:19.370Z,1.80
2022-08-24T04:43:09.828Z,1.80
2022-08-24T04:45:59.648Z,1.90
2022-08-24T04:48:50.310Z,1.80
2022-08-24T04:51:39.057Z,1.57
2022-08-24T04:54:29.362Z,1.87
2022-08-24T04:57:28.109Z,2.07
2022-08-24T05:00:19.496Z,1.80
2022-08-24T05:03:08.172Z,2.10
2022-08-24T05:05:58.076Z,2.10
2022-08-24T05:08:47.499Z,2.13
2022-08-24T05:11:37.147Z,1.97
2022-08-24T05:14:29.239Z,1.90
2022-08-24T05:17:18.158Z,1.90
2022-08-24T05:20:08.808Z,2.00
2022-08-24T05:23:05.043Z,1.90
2022-08-24T05:25:54.912Z,1.90
2022-08-24T05:28:43.521Z,2.33
2022-08-24T05:31:33.748Z,2.03
2022-08-24T05:34:27.829Z,1.97
2022-08-24T05:37:16.713Z,2.40
2022-08-24T05:40:34.231Z,1.90
2022-08-24T05:43:23.788Z,2.07
2022-08-24T05:46:12.250Z,1.93
2022-08-24T05:49:01.236Z,2.10
2022-08-24T05:51:54.191Z,1.83
2022-08-24T05:54:43.052Z,1.70
2022-08-24T05:57:35.195Z,1.87
2022-08-24T06:00:38.494Z,1.77
2022-08-24T06:03:27.081Z,1.87
2022-08-24T06:06:15.871Z,1.87
2022-08-24T06:09:05.540Z,2.20
2022-08-24T06:11:54.499Z,2.60
2022-08-24T06:14:47.579Z,2.80
2022-08-24T06:17:38.482Z,2.60
2022-08-24T06:20:27.297Z,2.80
2022-08-24T06:23:15.724Z,2.83
2022-08-24T06:26:29.608Z,2.90
2022-08-24T06:29:18.264Z,3.20
2022-08-24T06:32:09.015Z,2.97
2022-08-24T06:34:57.737Z,3.30
2022-08-24T06:37:47.860Z,3.30
2022-08-24T06:40:36.322Z,3.40
2022-08-24T06:43:25.117Z,3.43
2022-08-24T06:46:15.031Z,3.90
2022-08-24T06:49:08.954Z,3.67
2022-08-24T06:52:03.354Z,4.20
2022-08-24T06:54:53.136Z,4.03
2022-08-24T06:57:41.777Z,3.40
2022-08-24T07:00:31.653Z,2.97
2022-08-24T07:03:20.869Z,3.60
2022-08-24T07:06:18.898Z,3.47
2022-08-24T07:09:07.433Z,3.77
2022-08-24T07:11:57.236Z,3.10
2022-08-24T07:14:45.689Z,3.50
2022-08-24T07:17:34.105Z,3.63
2022-08-24T07:20:23.412Z,3.27
2022-08-24T07:23:41.133Z,3.37
2022-08-24T07:26:31.378Z,3.57
2022-08-24T07:32:30.018Z,3.57
2022-08-24T07:35:19.073Z,3.70
2022-08-24T07:38:08.174Z,3.73
2022-08-24T07:41:20.193Z,3.73
2022-08-24T07:44:06.675Z,3.60
2022-08-24T07:46:55.166Z,3.47
2022-08-24T07:49:43.826Z,3.13
2022-08-24T07:52:32.281Z,3.87
2022-08-24T07:55:21.030Z,3.40
2022-08-24T07:58:11.357Z,3.53
2022-08-24T08:01:00.626Z,3.37
2022-08-24T08:03:50.386Z,3.90
2022-08-24T08:06:39.118Z,3.83
2022-08-24T08:09:28.685Z,3.40
2022-08-24T08:12:17.251Z,3.57
2022-08-24T08:15:16.899Z,2.90
2022-08-24T08:18:16.073Z,2.73
2022-08-24T08:21:26.837Z,3.20
2022-08-24T08:24:15.139Z,3.17
2022-08-24T08:27:04.553Z,3.40
2022-08-24T08:29:58.434Z,3.70
2022-08-24T08:32:48.358Z,3.53
2022-08-24T08:35:37.759Z,3.37
2022-08-24T08:38:27.574Z,3.70
2022-08-24T08:41:51.113Z,2.63
2022-08-24T08:45:00.201Z,3.10
2022-08-24T08:48:43.727Z,3.77
2022-08-24T08:51:53.056Z,3.70
2022-08-24T08:54:48.564Z,3.30
2022-08-24T08:58:00.565Z,3.30
2022-08-24T09:00:57.110Z,3.20
2022-08-24T09:04:21.254Z,2.90
2022-08-24T09:07:26.136Z,2.60
2022-08-24T09:10:40.529Z,2.70
2022-08-24T09:16:21.387Z,3.07
2022-08-24T09:19:31.708Z,2.90
2022-08-24T09:22:22.026Z,2.80
2022-08-24T09:25:26.609Z,2.80
2022-08-24T09:28:37.923Z,3.00
2022-08-24T09:31:44.878Z,3.00
2022-08-24T09:34:39.511Z,2.27
2022-08-24T09:37:34.891Z,2.60
2022-08-24T09:40:37.540Z,2.87
2022-08-24T09:44:16.299Z,2.60
2022-08-24T09:47:30.602Z,2.60
2022-08-24T09:50:51.177Z,2.47
2022-08-24T09:54:14.206Z,2.40
2022-08-24T09:57:20.127Z,2.43
2022-08-24T10:00:15.394Z,2.40
2022-08-24T10:03:15.233Z,2.30
2022-08-24T10:06:27.889Z,2.40
2022-08-24T10:09:45.334Z,2.30
2022-08-24T10:12:44.546Z,2.30
2022-08-24T10:15:37.628Z,2.20
2022-08-24T10:18:39.691Z,2.37
2022-08-24T10:21:41.170Z,2.53
2022-08-24T10:25:01.776Z,2.70
2022-08-24T10:27:56.575Z,2.20
2022-08-24T10:31:04.700Z,2.20
2022-08-24T10:34:03.805Z,2.40
2022-08-24T10:37:19.411Z,2.23
2022-08-24T10:40:23.528Z,1.97
2022-08-24T10:43:46.260Z,2.30
2022-08-24T10:46:45.415Z,2.10
2022-08-24T10:50:11.159Z,2.27
2022-08-24T10:53:21.109Z,2.40
2022-08-24T10:56:12.102Z,2.37
2022-08-24T10:59:10.761Z,2.00
2022-08-24T11:02:11.928Z,1.90
2022-08-24T11:05:05.739Z,2.10
2022-08-24T11:07:58.493Z,1.95
2022-08-24T11:10:47.163Z,1.77
2022-08-24T11:13:36.760Z,1.85
2022-08-24T11:16:28.044Z,1.90
2022-08-24T11:19:32.025Z,2.30
2022-08-24T11:22:31.804Z,2.10
2022-08-24T11:25:23.484Z,2.08
2022-08-24T11:28:19.316Z,2.10
2022-08-24T11:31:10.730Z,1.42
2022-08-24T11:34:01.321Z,1.88
2022-08-24T11:36:49.768Z,2.00
2022-08-24T11:39:39.706Z,1.90
2022-08-24T11:42:43.227Z,2.00
2022-08-24T11:45:36.485Z,2.10
2022-08-24T11:48:36.024Z,1.77
2022-08-24T11:51:36.524Z,2.10
2022-08-24T11:54:32.364Z,2.10
2022-08-24T11:57:28.286Z,2.08
2022-08-24T12:00:19.798Z,2.05
2022-08-24T12:03:26.113Z,1.73
2022-08-24T12:06:27.640Z,2.20
2022-08-24T12:09:45.730Z,1.80
2022-08-24T12:12:40.847Z,2.30
2022-08-24T12:15:42.467Z,1.77
2022-08-24T12:18:35.307Z,1.80
2022-08-24T12:21:26.176Z,1.90
2022-08-24T12:24:16.710Z,1.77
2022-08-24T12:27:10.659Z,1.65
2022-08-24T12:30:05.355Z,1.80
2022-08-24T12:32:57.823Z,1.98
2022-08-24T12:35:48.662Z,1.88
2022-08-24T12:38:40.550Z,1.77
2022-08-24T12:41:32.090Z,2.10
2022-08-24T12:44:20.618Z,1.85
2022-08-24T12:47:13.434Z,2.00
2022-08-24T12:50:05.454Z,1.92
2022-08-24T12:53:26.424Z,1.90
2022-08-24T12:56:51.627Z,2.20
2022-08-24T12:59:41.487Z,1.80
2022-08-24T13:02:37.141Z,2.38
2022-08-24T13:05:41.694Z,1.70
2022-08-24T13:08:38.036Z,1.90
2022-08-24T13:11:31.767Z,1.98
2022-08-24T13:14:22.115Z,2.00
2022-08-24T13:17:13.965Z,1.95
2022-08-24T13:20:21.307Z,1.73
2022-08-24T13:23:18.630Z,1.88
2022-08-24T13:26:23.266Z,1.95
2022-08-24T13:29:11.852Z,1.88
2022-08-24T13:32:00.495Z,1.90
2022-08-24T13:34:51.033Z,1.80
2022-08-24T13:37:41.842Z,2.03
2022-08-24T13:40:30.522Z,1.98
2022-08-24T13:43:20.232Z,1.70
2022-08-24T13:46:16.871Z,2.03
2022-08-24T13:49:20.711Z,1.80
2022-08-24T13:52:16.750Z,1.77
2022-08-24T13:55:27.174Z,1.85
2022-08-24T13:58:27.012Z,1.65
2022-08-24T14:01:25.643Z,1.75
2022-08-24T14:04:31.361Z,2.10
2022-08-24T14:07:21.890Z,1.90
2022-08-24T14:10:15.306Z,1.90
2022-08-24T14:13:07.652Z,1.67
2022-08-24T14:16:13.921Z,1.80
2022-08-24T14:19:08.648Z,1.98
2022-08-24T14:22:02.150Z,1.83
2022-08-24T14:24:58.519Z,1.60
2022-08-24T14:27:49.258Z,2.03
2022-08-24T14:30:46.776Z,1.70
2022-08-24T14:33:38.807Z,2.00
2022-08-24T14:36:42.320Z,1.90
2022-08-24T14:39:36.123Z,1.90
2022-08-24T14:42:34.483Z,1.70
2022-08-24T14:45:28.173Z,1.90
2022-08-24T14:48:22.169Z,2.00
2022-08-24T14:51:16.780Z,1.77
2022-08-24T14:54:15.521Z,2.00
2022-08-24T14:57:18.106Z,1.60
2022-08-24T15:00:12.222Z,1.63
2022-08-24T15:03:24.802Z,1.90
2022-08-24T15:06:27.784Z,1.70
2022-08-24T15:09:23.880Z,1.70
2022-08-24T15:12:15.395Z,1.70
2022-08-24T15:15:10.384Z,1.77
2022-08-24T15:18:06.799Z,1.73
2022-08-24T15:21:09.980Z,1.80
2022-08-24T15:24:10.277Z,1.92
2022-08-24T15:27:44.131Z,1.73
2022-08-24T15:30:35.827Z,1.65
2022-08-24T15:33:24.758Z,3.20
2022-08-24T15:36:14.625Z,1.70
2022-08-24T15:39:04.709Z,1.50
2022-08-24T15:41:53.164Z,1.70
2022-08-24T15:44:44.175Z,1.63
2022-08-24T15:47:34.154Z,1.98
2022-08-24T15:50:25.789Z,1.80
2022-08-24T15:53:30.698Z,2.15
2022-08-24T15:56:35.835Z,1.50
2022-08-24T15:59:29.222Z,3.00
2022-08-24T16:02:29.057Z,1.45
2022-08-24T16:05:21.733Z,1.80
2022-08-24T16:08:13.273Z,1.60
2022-08-24T16:11:08.802Z,1.90
2022-08-24T16:13:57.254Z,1.63
2022-08-24T16:16:46.309Z,1.80
2022-08-24T16:19:36.273Z,1.70
2022-08-24T16:22:32.323Z,1.77
2022-08-24T16:25:25.922Z,1.55
2022-08-24T16:28:34.587Z,1.60
2022-08-24T16:31:47.055Z,1.80
2022-08-24T16:34:37.086Z,1.87
2022-08-24T16:37:26.080Z,1.67
2022-08-24T16:40:14.575Z,1.57
2022-08-24T16:43:03.942Z,1.50
2022-08-24T16:45:52.614Z,1.77
2022-08-24T16:48:41.222Z,1.67
2022-08-24T16:51:31.037Z,1.90
2022-08-24T16:54:19.644Z,1.50
2022-08-24T16:57:12.945Z,1.75
2022-08-24T17:00:01.429Z,1.60
2022-08-24T17:02:50.017Z,1.67
2022-08-24T17:05:38.541Z,1.77
2022-08-24T17:08:29.877Z,1.63
2022-08-24T17:11:19.453Z,1.60
2022-08-24T17:14:07.907Z,1.90
2022-08-24T17:16:56.396Z,1.73
2022-08-24T17:19:44.926Z,1.53
2022-08-24T17:22:33.439Z,1.50
2022-08-24T17:25:23.361Z,1.57
2022-08-24T17:28:11.939Z,1.70
2022-08-24T17:31:00.513Z,1.57
2022-08-24T17:33:49.175Z,1.50
2022-08-24T17:36:37.848Z,1.40
2022-08-24T17:41:28.848Z,1.80
2022-08-24T17:44:21.233Z,1.70
2022-08-24T17:47:09.751Z,2.00
2022-08-24T17:50:00.774Z,1.70
2022-08-24T17:52:59.128Z,1.80
2022-08-24T17:55:49.124Z,1.70
2022-08-24T17:58:59.024Z,1.60
2022-08-24T18:01:47.770Z,1.50
2022-08-24T18:04:36.974Z,1.53
2022-08-24T18:07:42.682Z,1.60
2022-08-24T18:10:34.472Z,3.47
2022-08-24T18:13:22.997Z,2.30
2022-08-24T18:16:16.873Z,1.80
2022-08-24T18:19:05.599Z,1.67
2022-08-24T18:21:54.225Z,1.47
2022-08-24T18:24:42.972Z,1.73
2022-08-24T18:27:32.283Z,1.67
2022-08-24T18:30:25.196Z,1.97
2022-08-24T18:33:18.771Z,1.50
2022-08-24T18:36:07.835Z,1.60
2022-08-24T18:38:56.470Z,1.70
2022-08-24T18:41:49.163Z,1.63
2022-08-24T18:44:38.188Z,1.60
2022-08-24T18:47:26.684Z,1.80
2022-08-24T18:50:16.618Z,1.80
2022-08-24T18:53:05.479Z,1.87
2022-08-24T18:55:54.082Z,1.60
2022-08-24T18:58:42.586Z,1.60
2022-08-24T19:01:31.156Z,1.63
2022-08-24T19:04:19.801Z,1.67
2022-08-24T19:07:19.291Z,1.80
2022-08-24T19:10:09.831Z,1.40
2022-08-24T19:12:59.951Z,1.60
2022-08-24T19:15:50.997Z,1.87
2022-08-24T19:18:39.713Z,1.63
2022-08-24T19:21:28.311Z,1.57
2022-08-24T19:24:18.645Z,1.80
2022-08-24T19:27:07.669Z,1.80
2022-08-24T19:29:56.560Z,1.50
2022-08-24T19:32:45.138Z,1.60
2022-08-24T19:35:34.153Z,1.83
2022-08-24T19:38:25.875Z,1.70
2022-08-24T19:41:17.538Z,1.80
2022-08-24T19:44:27.391Z,1.60
2022-08-24T19:47:16.740Z,1.60
2022-08-24T19:50:07.745Z,1.60
2022-08-24T19:52:57.550Z,1.50
2022-08-24T19:55:50.123Z,1.50
2022-08-24T19:58:44.397Z,1.90
2022-08-24T20:01:35.433Z,1.80
2022-08-24T20:04:24.028Z,1.70
2022-08-24T20:07:14.148Z,1.77
2022-08-24T20:10:05.024Z,1.80
2022-08-24T20:13:01.797Z,1.77
2022-08-24T20:15:52.422Z,1.70
2022-08-24T20:18:41.103Z,1.80
2022-08-24T20:21:30.245Z,1.90
2022-08-24T20:24:18.745Z,1.90
2022-08-24T20:27:07.382Z,1.73
2022-08-24T20:29:56.175Z,1.90
2022-08-24T20:32:47.956Z,1.77
2022-08-24T20:35:37.006Z,1.90
2022-08-24T20:38:25.531Z,2.00
2022-08-24T20:41:17.977Z,2.00
2022-08-24T20:44:07.806Z,1.90
2022-08-24T20:46:56.449Z,1.70
2022-08-24T20:49:46.377Z,1.80
2022-08-24T20:52:34.904Z,1.80
2022-08-24T20:55:23.640Z,1.67
2022-08-24T20:58:12.208Z,1.90
2022-08-24T21:01:00.848Z,1.70
2022-08-24T21:03:49.453Z,1.73
2022-08-24T21:06:40.437Z,1.60
2022-08-24T21:09:28.994Z,1.77
2022-08-24T21:12:17.482Z,1.83
2022-08-24T21:15:07.045Z,1.93
2022-08-24T21:17:55.604Z,1.70
2022-08-24T21:20:44.706Z,1.80
2022-08-24T21:23:54.032Z,1.80
2022-08-24T21:26:42.607Z,2.03
2022-08-24T21:29:31.370Z,2.00
2022-08-24T21:32:37.543Z,2.00
2022-08-24T21:35:25.979Z,1.67
2022-08-24T21:38:14.508Z,2.10
2022-08-24T21:41:05.603Z,1.83
2022-08-24T21:43:54.587Z,1.83
2022-08-24T21:46:43.412Z,1.87
2022-08-24T21:49:32.007Z,2.20
2022-08-24T21:52:20.490Z,2.07
2022-08-24T21:55:14.662Z,2.17
2022-08-24T21:58:05.887Z,2.03
2022-08-24T22:00:54.363Z,2.30
2022-08-24T22:03:47.771Z,1.83
2022-08-24T22:06:36.247Z,2.00
2022-08-24T22:09:24.741Z,2.43
2022-08-24T22:12:13.240Z,2.00
2022-08-24T22:15:03.165Z,2.17
2022-08-24T22:17:52.814Z,2.30
2022-08-24T22:20:41.423Z,2.30
2022-08-24T22:23:29.904Z,2.10
2022-08-24T22:26:18.358Z,2.30
2022-08-24T22:29:07.656Z,2.20
2022-08-24T22:31:57.499Z,2.30
2022-08-24T22:34:46.097Z,2.60
2022-08-24T22:37:34.943Z,2.47
2022-08-24T22:40:24.416Z,2.50
2022-08-24T22:43:13.205Z,2.40
2022-08-24T22:46:01.677Z,2.47
2022-08-24T22:48:51.515Z,2.40
2022-08-24T22:51:40.367Z,2.43
2022-08-24T22:54:29.568Z,2.27
2022-08-24T22:57:19.869Z,2.53
2022-08-24T23:00:11.176Z,2.57
2022-08-24T23:03:05.650Z,2.43
2022-08-24T23:05:55.625Z,2.73
2022-08-24T23:08:44.090Z,2.43
2022-08-24T23:11:32.670Z,2.40
2022-08-24T23:14:21.602Z,2.80
2022-08-24T23:17:10.138Z,2.60
2022-08-24T23:20:00.553Z,2.40
2022-08-24T23:22:50.666Z,2.73
2022-08-24T23:25:39.193Z,2.80
2022-08-24T23:28:27.665Z,2.67
2022-08-24T23:31:17.245Z,3.00
2022-08-24T23:34:07.834Z,2.60
2022-08-24T23:36:56.548Z,2.40
2022-08-24T23:39:46.439Z,3.13
2022-08-24T23:42:34.980Z,2.60
2022-08-24T23:45:28.279Z,2.40
2022-08-24T23:48:17.128Z,2.80
2022-08-24T23:51:06.019Z,2.80
2022-08-24T23:53:54.493Z,2.73
2022-08-24T23:56:45.707Z,2.90
2022-08-24T23:59:34.157Z,2.83
